Helen J — CFN6439 — position and weather

sailwx.info

Track history (hours):
 
Tides and Currents Weather Stations Pressure Air Temp Water Temp Dewpoint Dewpoint Depression Visibility Wind Speed Wind Dir Waves Ship Positions

Helen J

Last reported at 2017-Nov-23 09:27 UTC. Time now 2017-Nov-23 09:44 UTC.
Position N 49°06' W 123°20'.

Length 15 m; draft 3.6 m.

Type: Towing. MMSI: 316024235.

Date/timePositionNaut miles runAvg speedWind from/ knotsBaromVisibWave heightAir tempDewpointWater temp
2017-Nov-23 09:27N 49°06' W 123°20'4 7.9
2017-Nov-23 09:00N 49°07' W 123°15'4 8.1
2017-Nov-23 08:30N 49°07' W 123°09'4 8.1
2017-Nov-23 08:00N 49°08' W 123°03'4 7.7
2017-Nov-23 07:30N 49°09' W 122°58'0 0.5
2017-Nov-23 06:58N 49°09' W 122°58'0 0.6
2017-Nov-23 06:30N 49°10' W 122°58'0 0.0
2017-Nov-23 06:00N 49°10' W 122°58'1 2.9
2017-Nov-23 05:30N 49°09' W 123°00'3 5.9
2017-Nov-23 05:00N 49°08' W 123°04'3 5.8
2017-Nov-23 04:30N 49°06' W 123°08'3 5.4
2017-Nov-23 03:54N 49°08' W 123°13'3 5.6
2017-Nov-23 03:24N 49°07' W 123°17'4 5.5
2017-Nov-23 02:40N 49°05' W 123°23'  
2017-Nov-20 00:30N 49°15' W 123°16'0 0.0
2017-Nov-19 23:59N 49°15' W 123°16'0 0.9
2017-Nov-19 23:29N 49°15' W 123°15'1 1.9
2017-Nov-19 23:00N 49°14' W 123°14'0 0.9
2017-Nov-19 22:31N 49°14' W 123°14'0 0.1
2017-Nov-19 22:00N 49°14' W 123°14'0 0.2
2017-Nov-19 21:30N 49°14' W 123°14'0 0.0
2017-Nov-19 21:00N 49°14' W 123°14'0 0.3
2017-Nov-19 20:30N 49°14' W 123°14'0 0.4
2017-Nov-19 20:00N 49°14' W 123°14'0 0.0
2017-Nov-19 19:30N 49°14' W 123°14'0 0.0
2017-Nov-19 19:00N 49°14' W 123°14'0 0.0
2017-Nov-19 18:30N 49°14' W 123°14'0 0.0
2017-Nov-19 18:00N 49°14' W 123°14'0 0.0
2017-Nov-19 17:30N 49°14' W 123°14'0 0.0
2017-Nov-19 17:00N 49°14' W 123°14'0 0.0
2017-Nov-19 16:30N 49°14' W 123°14'0 0.0
2017-Nov-19 16:00N 49°14' W 123°14'0 0.0
2017-Nov-19 15:30N 49°14' W 123°14'0 0.0
2017-Nov-19 15:00N 49°14' W 123°14'0 0.0
2017-Nov-19 14:30N 49°14' W 123°14'0 0.0
2017-Nov-19 14:00N 49°14' W 123°14'0 0.0
2017-Nov-19 13:30N 49°14' W 123°14'0 0.0
2017-Nov-19 13:00N 49°14' W 123°14'0 0.0
2017-Nov-19 12:30N 49°14' W 123°14'0 0.0
2017-Nov-19 12:00N 49°14' W 123°14'0 0.0
2017-Nov-19 11:30N 49°14' W 123°14'0 0.0
2017-Nov-19 11:00N 49°14' W 123°14'0 0.0
2017-Nov-19 10:30N 49°14' W 123°14'2 4.6
2017-Nov-19 09:59N 49°15' W 123°16'3 7.3
2017-Nov-19 09:30N 49°18' W 123°14'4 8.7
2017-Nov-19 09:00N 49°18' W 123°07'1 1.1
2017-Nov-19 08:30N 49°18' W 123°06'2 4.7
2017-Nov-19 08:00N 49°19' W 123°10'3 6.1
2017-Nov-19 07:30N 49°18' W 123°14'4 7.1
2017-Nov-19 07:00N 49°18' W 123°19'3 6.4
2017-Nov-19 06:30N 49°17' W 123°24'3 6.4
2017-Nov-19 06:00N 49°16' W 123°29'22 2.3
2017-Nov-18 20:19N 48°56' W 123°42'15 1.6
2017-Nov-18 10:56N 49°10' W 123°33'4 9.4
2017-Nov-18 10:30N 49°12' W 123°28'5 9.8
2017-Nov-18 10:00N 49°15' W 123°21'4 7.2
2017-Nov-18 09:30N 49°15' W 123°16'0 0.2
2017-Nov-18 09:00N 49°15' W 123°16'0 0.3
2017-Nov-18 08:30N 49°15' W 123°16'0 0.8
2017-Nov-18 08:00N 49°15' W 123°16'0 0.6
2017-Nov-18 07:30N 49°15' W 123°17'0 0.4
2017-Nov-18 07:00N 49°16' W 123°17'0 1.0
2017-Nov-18 06:30N 49°16' W 123°17'1 1.6
2017-Nov-18 06:00N 49°15' W 123°18'1 2.3
2017-Nov-18 05:30N 49°15' W 123°20'1 1.9
2017-Nov-18 05:00N 49°14' W 123°21'1 1.5
2017-Nov-18 04:30N 49°14' W 123°22'1 1.4
2017-Nov-18 03:57N 49°13' W 123°23'1 1.4
2017-Nov-18 03:29N 49°13' W 123°24'1 1.5
2017-Nov-18 03:00N 49°13' W 123°25'1 1.5
2017-Nov-18 02:30N 49°12' W 123°26'1 1.4
2017-Nov-18 01:58N 49°12' W 123°27'1 1.5
2017-Nov-18 01:22N 49°11' W 123°28'2 1.4
2017-Nov-17 23:36N 49°10' W 123°31'0 1.2
2017-Nov-17 23:29N 49°10' W 123°31'34 1.7
2017-Nov-17 03:04N 49°34' W 124°09'0 2.4
2017-Nov-17 02:56N 49°34' W 124°09'1 2.0
2017-Nov-17 02:30N 49°35' W 124°09'1 1.9
2017-Nov-17 01:51N 49°36' W 124°09'1 2.1
2017-Nov-17 01:22N 49°37' W 124°09'2 1.9
2017-Nov-17 00:33N 49°38' W 124°08'0 2.0
2017-Nov-17 00:26N 49°39' W 124°09'1 1.8
2017-Nov-16 23:58N 49°39' W 124°10'1 1.8
2017-Nov-16 23:23N 49°39' W 124°11'1 1.6
2017-Nov-16 22:52N 49°40' W 124°12'1 1.5
2017-Nov-16 22:29N 49°40' W 124°13'1 1.6
2017-Nov-16 21:58N 49°41' W 124°13'1 1.8
2017-Nov-16 21:30N 49°42' W 124°13'1 1.8
2017-Nov-16 21:00N 49°43' W 124°14'1 1.5
2017-Nov-16 20:30N 49°43' W 124°13'1 1.6
2017-Nov-16 20:00N 49°43' W 124°12'1 1.2
2017-Nov-16 19:30N 49°44' W 124°11'0 0.3
2017-Nov-16 19:00N 49°44' W 124°11'0 0.1
2017-Nov-16 18:31N 49°44' W 124°11'0 0.1
2017-Nov-16 18:01N 49°44' W 124°11'0 0.2
2017-Nov-16 17:30N 49°44' W 124°11'0 0.2
2017-Nov-16 17:00N 49°44' W 124°11'4 7.1
2017-Nov-16 16:28N 49°41' W 124°14'5 9.9
2017-Nov-16 15:57N 49°36' W 124°10'44 3.4
2017-Nov-16 03:04N 48°56' W 123°43'0 2.3
2017-Nov-16 02:58N 48°55' W 123°42'0 0.1
2017-Nov-16 02:27N 48°55' W 123°42'0 0.1
2017-Nov-16 01:56N 48°55' W 123°42'0 0.2
2017-Nov-16 01:18N 48°56' W 123°42'0 0.1
2017-Nov-16 00:48N 48°55' W 123°42'17 0.7
2017-Nov-14 23:12N 49°10' W 123°55'  
Track history (hours):
 
Tides and Currents Weather Stations Pressure Air Temp Water Temp Dewpoint Dewpoint Depression Visibility Wind Speed Wind Dir Waves Ship Positions

Helen J

Last reported at 2017-Nov-23 09:27 UTC. Time now 2017-Nov-23 09:44 UTC.
Position N 49°06' W 123°20'.

Length 15 m; draft 3.6 m.

Type: Towing. MMSI: 316024235.

Date/timePositionNaut miles runAvg speedWind from/ knotsBaromVisibWave heightAir tempDewpointWater temp
2017-Nov-23 09:27N 49°06' W 123°20'4 7.9
2017-Nov-23 09:00N 49°07' W 123°15'4 8.1
2017-Nov-23 08:30N 49°07' W 123°09'4 8.1
2017-Nov-23 08:00N 49°08' W 123°03'4 7.7
2017-Nov-23 07:30N 49°09' W 122°58'0 0.5
2017-Nov-23 06:58N 49°09' W 122°58'0 0.6
2017-Nov-23 06:30N 49°10' W 122°58'0 0.0
2017-Nov-23 06:00N 49°10' W 122°58'1 2.9
2017-Nov-23 05:30N 49°09' W 123°00'3 5.9
2017-Nov-23 05:00N 49°08' W 123°04'3 5.8
2017-Nov-23 04:30N 49°06' W 123°08'3 5.4
2017-Nov-23 03:54N 49°08' W 123°13'3 5.6
2017-Nov-23 03:24N 49°07' W 123°17'4 5.5
2017-Nov-23 02:40N 49°05' W 123°23'  
2017-Nov-20 00:30N 49°15' W 123°16'0 0.0
2017-Nov-19 23:59N 49°15' W 123°16'0 0.9
2017-Nov-19 23:29N 49°15' W 123°15'1 1.9
2017-Nov-19 23:00N 49°14' W 123°14'0 0.9
2017-Nov-19 22:31N 49°14' W 123°14'0 0.1
2017-Nov-19 22:00N 49°14' W 123°14'0 0.2
2017-Nov-19 21:30N 49°14' W 123°14'0 0.0
2017-Nov-19 21:00N 49°14' W 123°14'0 0.3
2017-Nov-19 20:30N 49°14' W 123°14'0 0.4
2017-Nov-19 20:00N 49°14' W 123°14'0 0.0
2017-Nov-19 19:30N 49°14' W 123°14'0 0.0
2017-Nov-19 19:00N 49°14' W 123°14'0 0.0
2017-Nov-19 18:30N 49°14' W 123°14'0 0.0
2017-Nov-19 18:00N 49°14' W 123°14'0 0.0
2017-Nov-19 17:30N 49°14' W 123°14'0 0.0
2017-Nov-19 17:00N 49°14' W 123°14'0 0.0
2017-Nov-19 16:30N 49°14' W 123°14'0 0.0
2017-Nov-19 16:00N 49°14' W 123°14'0 0.0
2017-Nov-19 15:30N 49°14' W 123°14'0 0.0
2017-Nov-19 15:00N 49°14' W 123°14'0 0.0
2017-Nov-19 14:30N 49°14' W 123°14'0 0.0
2017-Nov-19 14:00N 49°14' W 123°14'0 0.0
2017-Nov-19 13:30N 49°14' W 123°14'0 0.0
2017-Nov-19 13:00N 49°14' W 123°14'0 0.0
2017-Nov-19 12:30N 49°14' W 123°14'0 0.0
2017-Nov-19 12:00N 49°14' W 123°14'0 0.0
2017-Nov-19 11:30N 49°14' W 123°14'0 0.0
2017-Nov-19 11:00N 49°14' W 123°14'0 0.0
2017-Nov-19 10:30N 49°14' W 123°14'2 4.6
2017-Nov-19 09:59N 49°15' W 123°16'3 7.3
2017-Nov-19 09:30N 49°18' W 123°14'4 8.7
2017-Nov-19 09:00N 49°18' W 123°07'1 1.1
2017-Nov-19 08:30N 49°18' W 123°06'2 4.7
2017-Nov-19 08:00N 49°19' W 123°10'3 6.1
2017-Nov-19 07:30N 49°18' W 123°14'4 7.1
2017-Nov-19 07:00N 49°18' W 123°19'3 6.4
2017-Nov-19 06:30N 49°17' W 123°24'3 6.4
2017-Nov-19 06:00N 49°16' W 123°29'22 2.3
2017-Nov-18 20:19N 48°56' W 123°42'15 1.6
2017-Nov-18 10:56N 49°10' W 123°33'4 9.4
2017-Nov-18 10:30N 49°12' W 123°28'5 9.8
2017-Nov-18 10:00N 49°15' W 123°21'4 7.2
2017-Nov-18 09:30N 49°15' W 123°16'0 0.2
2017-Nov-18 09:00N 49°15' W 123°16'0 0.3
2017-Nov-18 08:30N 49°15' W 123°16'0 0.8
2017-Nov-18 08:00N 49°15' W 123°16'0 0.6
2017-Nov-18 07:30N 49°15' W 123°17'0 0.4
2017-Nov-18 07:00N 49°16' W 123°17'0 1.0
2017-Nov-18 06:30N 49°16' W 123°17'1 1.6
2017-Nov-18 06:00N 49°15' W 123°18'1 2.3
2017-Nov-18 05:30N 49°15' W 123°20'1 1.9
2017-Nov-18 05:00N 49°14' W 123°21'1 1.5
2017-Nov-18 04:30N 49°14' W 123°22'1 1.4
2017-Nov-18 03:57N 49°13' W 123°23'1 1.4
2017-Nov-18 03:29N 49°13' W 123°24'1 1.5
2017-Nov-18 03:00N 49°13' W 123°25'1 1.5
2017-Nov-18 02:30N 49°12' W 123°26'1 1.4
2017-Nov-18 01:58N 49°12' W 123°27'1 1.5
2017-Nov-18 01:22N 49°11' W 123°28'2 1.4
2017-Nov-17 23:36N 49°10' W 123°31'0 1.2
2017-Nov-17 23:29N 49°10' W 123°31'34 1.7
2017-Nov-17 03:04N 49°34' W 124°09'0 2.4
2017-Nov-17 02:56N 49°34' W 124°09'1 2.0
2017-Nov-17 02:30N 49°35' W 124°09'1 1.9
2017-Nov-17 01:51N 49°36' W 124°09'1 2.1
2017-Nov-17 01:22N 49°37' W 124°09'2 1.9
2017-Nov-17 00:33N 49°38' W 124°08'0 2.0
2017-Nov-17 00:26N 49°39' W 124°09'1 1.8
2017-Nov-16 23:58N 49°39' W 124°10'1 1.8
2017-Nov-16 23:23N 49°39' W 124°11'1 1.6
2017-Nov-16 22:52N 49°40' W 124°12'1 1.5
2017-Nov-16 22:29N 49°40' W 124°13'1 1.6
2017-Nov-16 21:58N 49°41' W 124°13'1 1.8
2017-Nov-16 21:30N 49°42' W 124°13'1 1.8
2017-Nov-16 21:00N 49°43' W 124°14'1 1.5
2017-Nov-16 20:30N 49°43' W 124°13'1 1.6
2017-Nov-16 20:00N 49°43' W 124°12'1 1.2
2017-Nov-16 19:30N 49°44' W 124°11'0 0.3
2017-Nov-16 19:00N 49°44' W 124°11'0 0.1
2017-Nov-16 18:31N 49°44' W 124°11'0 0.1
2017-Nov-16 18:01N 49°44' W 124°11'0 0.2
2017-Nov-16 17:30N 49°44' W 124°11'0 0.2
2017-Nov-16 17:00N 49°44' W 124°11'4 7.1
2017-Nov-16 16:28N 49°41' W 124°14'5 9.9
2017-Nov-16 15:57N 49°36' W 124°10'44 3.4
2017-Nov-16 03:04N 48°56' W 123°43'0 2.3
2017-Nov-16 02:58N 48°55' W 123°42'0 0.1
2017-Nov-16 02:27N 48°55' W 123°42'0 0.1
2017-Nov-16 01:56N 48°55' W 123°42'0 0.2
2017-Nov-16 01:18N 48°56' W 123°42'0 0.1
2017-Nov-16 00:48N 48°55' W 123°42'17 0.7
2017-Nov-14 23:12N 49°10' W 123°55'  

Dump ship's entire track history